Time;durP1;ratioP1;P1;durP2;ratioP2;P2;SDS_P1;SDS_P2;PMS_P1;PMS_P2;Temp;Humidity;BMP_temperature;BMP_pressure;BME280_temperature;BME280_humidity;BME280_pressure;Samples;Min_cycle;Max_cycle;Signal;HPM_P1;HPM_P2
2021/04/14 00:02:13;;;;;;;1.02;1.00;;;7.60;99.90;;;;;;5033309;28;20172;-76
2021/04/14 00:04:39;;;;;;;0.50;0.50;;;7.50;99.90;;;;;;5034801;28;20152;-77
2021/04/14 00:07:07;;;;;;;0.30;0.30;;;7.40;99.90;;;;;;5036441;28;20246;-76
2021/04/14 00:09:33;;;;;;;0.38;0.38;;;7.20;99.90;;;;;;5036616;28;20172;-76
2021/04/14 00:11:59;;;;;;;1.00;0.93;;;7.00;99.90;;;;;;5036572;28;20623;-76
2021/04/14 00:14:26;;;;;;;3.42;0.98;;;7.00;99.90;;;;;;5036341;28;20202;-77
2021/04/14 00:16:52;;;;;;;1.77;0.90;;;7.20;99.90;;;;;;5036471;28;20274;-76
2021/04/14 00:19:18;;;;;;;0.30;0.30;;;7.30;99.90;;;;;;5051840;28;20314;-76
2021/04/14 00:21:43;;;;;;;0.95;0.70;;;7.20;99.90;;;;;;5036485;28;20160;-76
2021/04/14 00:24:13;;;;;;;0.20;0.20;;;7.20;99.90;;;;;;5018905;28;20568;-76
2021/04/14 00:26:39;;;;;;;0.40;0.40;;;7.00;99.90;;;;;;5018935;28;20199;-76
2021/04/14 00:29:04;;;;;;;0.52;0.52;;;7.00;99.90;;;;;;5036054;28;20172;-77
2021/04/14 00:31:36;;;;;;;0.32;0.32;;;6.90;99.90;;;;;;5018265;28;20215;-76
2021/04/14 00:34:11;;;;;;;1.02;0.95;;;6.90;99.90;;;;;;5036046;28;20623;-77
2021/04/14 00:36:38;;;;;;;0.55;0.55;;;6.80;99.90;;;;;;5018047;28;20730;-77
2021/04/14 00:39:08;;;;;;;0.73;0.73;;;6.80;99.90;;;;;;5035957;28;20259;-76
2021/04/14 00:41:34;;;;;;;1.75;0.88;;;6.50;99.90;;;;;;5018461;28;20168;-76
2021/04/14 00:44:01;;;;;;;0.90;0.90;;;6.50;99.90;;;;;;5018463;28;20176;-77
2021/04/14 00:46:27;;;;;;;0.40;0.40;;;6.50;99.90;;;;;;5018049;28;20651;-77
2021/04/14 00:48:52;;;;;;;1.67;1.58;;;6.50;99.90;;;;;;5035551;28;20172;-77
2021/04/14 00:51:19;;;;;;;6.32;1.05;;;6.60;99.90;;;;;;5035625;28;20156;-77
2021/04/14 00:53:45;;;;;;;1.10;1.00;;;6.50;99.90;;;;;;5035510;28;20178;-76
2021/04/14 00:56:11;;;;;;;2.40;2.05;;;6.60;99.90;;;;;;5035364;28;20671;-76
2021/04/14 00:58:36;;;;;;;0.70;0.57;;;6.60;99.90;;;;;;5035473;28;20164;-77
2021/04/14 01:01:03;;;;;;;1.00;0.93;;;6.70;99.90;;;;;;5035671;28;20190;-77
2021/04/14 01:03:32;;;;;;;1.05;0.95;;;6.80;99.90;;;;;;5035421;28;20203;-77
2021/04/14 01:06:01;;;;;;;1.58;1.48;;;6.80;99.90;;;;;;5035797;28;20219;-77
2021/04/14 01:08:26;;;;;;;0.60;0.60;;;6.90;99.90;;;;;;5036233;28;20192;-76
2021/04/14 01:10:52;;;;;;;0.70;0.55;;;6.80;99.90;;;;;;5035982;28;20198;-77
2021/04/14 01:13:18;;;;;;;0.77;0.77;;;7.00;99.90;;;;;;5035286;28;20206;-76
2021/04/14 01:15:47;;;;;;;0.60;0.60;;;6.90;99.90;;;;;;5034769;28;20646;-76
2021/04/14 01:18:16;;;;;;;0.43;0.43;;;6.60;99.90;;;;;;5017437;28;20180;-77
2021/04/14 01:20:42;;;;;;;0.30;0.30;;;6.50;99.90;;;;;;5035128;28;20183;-77
2021/04/14 01:23:08;;;;;;;0.45;0.45;;;6.50;99.90;;;;;;5035104;28;20168;-76
2021/04/14 01:25:38;;;;;;;0.93;0.93;;;6.40;99.90;;;;;;5034785;28;20178;-77
2021/04/14 01:28:06;;;;;;;2.10;1.15;;;6.30;99.90;;;;;;5035696;28;20164;-78
2021/04/14 01:30:32;;;;;;;0.60;0.60;;;6.20;99.90;;;;;;5034890;28;20199;-78
2021/04/14 01:32:58;;;;;;;0.30;0.30;;;6.30;99.90;;;;;;5034516;28;20247;-75
2021/04/14 01:35:26;;;;;;;0.82;0.82;;;6.10;99.90;;;;;;5034620;28;20283;-75
2021/04/14 01:37:52;;;;;;;0.50;0.50;;;6.00;99.90;;;;;;5034719;28;20160;-75
2021/04/14 01:40:20;;;;;;;0.40;0.40;;;5.90;99.90;;;;;;5035394;28;20218;-77
2021/04/14 01:42:47;;;;;;;0.73;0.63;;;5.90;99.90;;;;;;5036695;28;20286;-78
2021/04/14 01:45:15;;;;;;;1.05;0.95;;;5.70;99.90;;;;;;5036204;28;20562;-76
2021/04/14 01:47:41;;;;;;;0.57;0.57;;;5.80;99.90;;;;;;5035256;28;20187;-77
2021/04/14 01:50:08;;;;;;;0.50;0.50;;;5.90;99.90;;;;;;5034794;28;20164;-76
2021/04/14 01:52:34;;;;;;;1.67;1.13;;;5.90;99.90;;;;;;5034688;28;20168;-77
2021/04/14 01:55:00;;;;;;;0.60;0.60;;;6.00;99.90;;;;;;5034548;28;20214;-76
2021/04/14 01:57:26;;;;;;;9.77;1.25;;;5.90;99.90;;;;;;5034219;28;20192;-78
2021/04/14 01:59:52;;;;;;;0.20;0.20;;;5.70;99.90;;;;;;5034631;28;20176;-76
2021/04/14 02:02:18;;;;;;;0.73;0.73;;;5.70;99.90;;;;;;5034700;28;20164;-77
2021/04/14 02:04:43;;;;;;;0.45;0.45;;;5.70;99.90;;;;;;5034394;28;20234;-77
2021/04/14 02:07:09;;;;;;;0.50;0.50;;;5.80;99.90;;;;;;5034553;28;20205;-76
2021/04/14 02:09:35;;;;;;;2.35;2.25;;;6.00;99.90;;;;;;5034135;28;20175;-76
2021/04/14 02:12:00;;;;;;;1.55;1.45;;;6.00;99.90;;;;;;5034276;28;20638;-78
2021/04/14 02:14:26;;;;;;;0.68;0.68;;;6.00;99.90;;;;;;5033934;28;20521;-77
2021/04/14 02:16:51;;;;;;;0.90;0.82;;;6.20;99.90;;;;;;5034035;28;20194;-76
2021/04/14 02:19:17;;;;;;;1.75;0.85;;;6.20;99.90;;;;;;5034031;28;20249;-79
2021/04/14 02:21:42;;;;;;;1.42;0.90;;;6.30;99.90;;;;;;5033864;28;20166;-78
2021/04/14 02:24:08;;;;;;;10.77;1.48;;;6.30;99.90;;;;;;5034059;28;20163;-78
2021/04/14 02:26:34;;;;;;;0.45;0.45;;;6.30;99.90;;;;;;5033359;28;20192;-78
2021/04/14 02:28:59;;;;;;;0.80;0.80;;;6.00;99.90;;;;;;5033911;28;20168;-78
2021/04/14 02:31:30;;;;;;;0.82;0.82;;;5.80;99.90;;;;;;5034141;28;20213;-77
2021/04/14 02:34:05;;;;;;;0.60;0.60;;;5.60;99.90;;;;;;5016736;28;20172;-77
2021/04/14 02:36:31;;;;;;;1.98;1.88;;;5.50;99.90;;;;;;5035047;28;20674;-76
2021/04/14 02:38:57;;;;;;;0.40;0.40;;;5.50;99.90;;;;;;5045948;28;20161;-77
2021/04/14 02:41:23;;;;;;;2.30;1.58;;;5.60;99.90;;;;;;5053830;28;20184;-78
2021/04/14 02:43:50;;;;;;;1.08;1.08;;;5.90;99.90;;;;;;5054446;28;20167;-76
2021/04/14 02:46:15;;;;;;;1.02;0.95;;;6.00;99.90;;;;;;5036226;28;20195;-76
2021/04/14 02:48:41;;;;;;;0.70;0.70;;;6.00;99.90;;;;;;5049625;28;20175;-77
2021/04/14 02:51:07;;;;;;;1.58;1.15;;;5.80;99.90;;;;;;5033846;28;20156;-76
2021/04/14 02:53:33;;;;;;;0.50;0.50;;;5.90;99.90;;;;;;5033762;28;20176;-76
2021/04/14 02:55:58;;;;;;;0.45;0.45;;;6.10;99.90;;;;;;5049021;28;20310;-76
2021/04/14 02:58:24;;;;;;;1.00;1.00;;;6.20;99.90;;;;;;5033523;28;20164;-78
2021/04/14 03:00:49;;;;;;;0.70;0.70;;;6.20;99.90;;;;;;5033551;28;20259;-77
2021/04/14 03:03:15;;;;;;;0.90;0.90;;;6.20;99.90;;;;;;5033767;28;20179;-76
2021/04/14 03:05:41;;;;;;;0.82;0.82;;;6.20;99.90;;;;;;5033288;28;20196;-77
2021/04/14 03:08:06;;;;;;;1.55;1.45;;;6.10;99.90;;;;;;5033001;28;20156;-77
2021/04/14 03:10:33;;;;;;;0.85;0.82;;;6.10;99.90;;;;;;5033282;28;20175;-77
2021/04/14 03:13:00;;;;;;;2.60;1.63;;;6.00;99.90;;;;;;5033323;28;20164;-76
2021/04/14 03:15:29;;;;;;;0.50;0.50;;;6.10;99.90;;;;;;5032956;28;20618;-76
2021/04/14 03:17:55;;;;;;;0.40;0.40;;;6.20;99.90;;;;;;5033135;28;20163;-76
2021/04/14 03:20:21;;;;;;;0.77;0.77;;;6.10;99.90;;;;;;5033205;28;20164;-76
2021/04/14 03:22:48;;;;;;;1.67;1.58;;;6.00;99.90;;;;;;5033370;28;20532;-76
2021/04/14 03:25:14;;;;;;;0.93;0.93;;;6.10;99.90;;;;;;5033033;28;20254;-77
2021/04/14 03:27:40;;;;;;;0.50;0.50;;;6.20;99.90;;;;;;5032928;28;20653;-78
2021/04/14 03:30:08;;;;;;;0.80;0.80;;;6.30;99.90;;;;;;5033224;28;20202;-77
2021/04/14 03:32:34;;;;;;;0.88;0.88;;;6.30;99.90;;;;;;5032634;28;20223;-75
2021/04/14 03:35:00;;;;;;;0.30;0.30;;;6.30;99.90;;;;;;5033089;28;20217;-75
2021/04/14 03:37:26;;;;;;;0.40;0.40;;;6.30;99.90;;;;;;5032947;28;20191;-75
2021/04/14 03:39:52;;;;;;;0.68;0.68;;;6.30;99.90;;;;;;5035365;28;20176;-75
2021/04/14 03:42:17;;;;;;;0.40;0.40;;;6.50;99.90;;;;;;5037177;28;20172;-76
2021/04/14 03:44:43;;;;;;;0.82;0.80;;;6.70;99.90;;;;;;5037949;28;20160;-76
2021/04/14 03:47:09;;;;;;;1.65;1.25;;;6.50;99.90;;;;;;5037019;28;20274;-77
2021/04/14 03:49:35;;;;;;;0.52;0.52;;;6.40;99.90;;;;;;5037655;28;20203;-76
2021/04/14 03:52:01;;;;;;;2.45;1.05;;;6.40;99.90;;;;;;5037919;28;20175;-77
2021/04/14 03:54:28;;;;;;;1.13;1.02;;;6.40;99.90;;;;;;5037589;28;20240;-77
2021/04/14 03:56:53;;;;;;;1.45;1.35;;;6.50;99.90;;;;;;5040729;28;20200;-77
2021/04/14 03:59:19;;;;;;;2.17;2.05;;;6.60;99.90;;;;;;5038826;28;20168;-77
2021/04/14 04:01:45;;;;;;;13.02;2.05;;;6.50;99.90;;;;;;5036617;28;20172;-77
2021/04/14 04:04:11;;;;;;;1.50;1.40;;;6.60;99.90;;;;;;5036740;28;20160;-78
2021/04/14 04:06:36;;;;;;;0.52;0.52;;;6.60;99.90;;;;;;5036775;28;20195;-77
2021/04/14 04:09:03;;;;;;;1.95;1.40;;;6.50;99.90;;;;;;5036569;28;20175;-76
2021/04/14 04:11:29;;;;;;;2.33;2.13;;;6.50;99.90;;;;;;5036839;28;20156;-76
2021/04/14 04:13:57;;;;;;;3.13;2.20;;;6.80;99.90;;;;;;5036465;28;20174;-76
2021/04/14 04:16:23;;;;;;;0.52;0.52;;;7.00;99.90;;;;;;5035972;28;20970;-76
2021/04/14 04:18:49;;;;;;;0.88;0.88;;;7.00;99.90;;;;;;5036370;28;20163;-76
2021/04/14 04:21:15;;;;;;;4.72;2.67;;;7.00;99.90;;;;;;5036490;28;20160;-77
2021/04/14 04:23:41;;;;;;;0.65;0.60;;;7.00;99.90;;;;;;5036299;28;20218;-77
2021/04/14 04:26:07;;;;;;;3.58;1.05;;;7.00;99.90;;;;;;5036137;28;20227;-77
2021/04/14 04:28:33;;;;;;;1.02;1.00;;;6.90;99.90;;;;;;5036093;28;20163;-77
2021/04/14 04:30:58;;;;;;;0.80;0.80;;;6.70;99.90;;;;;;5036110;28;20175;-77
2021/04/14 04:33:24;;;;;;;0.50;0.50;;;6.70;99.90;;;;;;5035933;28;20190;-78
2021/04/14 04:35:50;;;;;;;0.40;0.40;;;6.70;99.90;;;;;;5035773;28;20298;-77
2021/04/14 04:38:15;;;;;;;0.60;0.60;;;6.80;99.90;;;;;;5035956;28;20183;-75
2021/04/14 04:40:41;;;;;;;1.17;0.95;;;6.70;99.90;;;;;;5035797;28;20559;-77
2021/04/14 04:43:08;;;;;;;2.05;1.25;;;6.60;99.90;;;;;;5035410;28;20171;-76
2021/04/14 04:45:34;;;;;;;0.80;0.80;;;6.40;99.90;;;;;;5035585;28;20168;-77
2021/04/14 04:48:00;;;;;;;0.65;0.65;;;6.50;99.90;;;;;;5035863;28;20148;-77
2021/04/14 04:50:28;;;;;;;0.73;0.73;;;6.50;99.90;;;;;;5035266;28;20505;-77
2021/04/14 04:53:02;;;;;;;0.63;0.63;;;6.50;99.90;;;;;;5035538;28;20659;-75
2021/04/14 04:55:28;;;;;;;0.32;0.32;;;6.30;99.90;;;;;;5035386;28;20682;-76
2021/04/14 04:57:54;;;;;;;0.43;0.43;;;6.50;99.90;;;;;;5035850;28;20160;-76
2021/04/14 05:00:20;;;;;;;1.10;1.10;;;6.60;99.90;;;;;;5035390;28;20190;-76
2021/04/14 05:02:47;;;;;;;0.77;0.77;;;6.80;99.90;;;;;;5035769;28;20170;-76
2021/04/14 05:05:17;;;;;;;25.25;2.72;;;6.80;99.90;;;;;;5035349;28;20164;-76
2021/04/14 05:07:43;;;;;;;1.15;0.65;;;6.70;99.90;;;;;;5035461;28;20597;-76
2021/04/14 05:10:11;;;;;;;0.55;0.55;;;6.50;99.90;;;;;;5035693;28;20219;-76
2021/04/14 05:12:37;;;;;;;2.05;1.55;;;6.40;99.90;;;;;;5017937;28;20217;-78
2021/04/14 05:15:03;;;;;;;0.75;0.75;;;6.40;99.90;;;;;;5035144;28;20188;-78
2021/04/14 05:17:28;;;;;;;0.55;0.55;;;6.60;99.90;;;;;;5035005;28;20191;-78
2021/04/14 05:19:54;;;;;;;0.93;0.93;;;6.70;99.90;;;;;;5035392;28;20160;-76
2021/04/14 05:22:20;;;;;;;3.50;2.45;;;6.80;99.90;;;;;;5040051;28;20168;-77
2021/04/14 05:24:45;;;;;;;0.80;0.80;;;6.90;99.90;;;;;;5053158;28;20148;-76
2021/04/14 05:27:11;;;;;;;1.05;1.05;;;6.90;99.90;;;;;;5046692;28;20207;-77
2021/04/14 05:29:36;;;;;;;0.43;0.43;;;7.00;99.90;;;;;;5047940;28;20258;-76
2021/04/14 05:32:02;;;;;;;1.30;1.30;;;7.10;99.90;;;;;;5035876;28;20224;-77
2021/04/14 05:34:28;;;;;;;1.58;1.50;;;7.20;99.90;;;;;;5035347;28;20579;-77
2021/04/14 05:36:53;;;;;;;0.90;0.90;;;7.00;99.90;;;;;;5036358;28;20283;-77
2021/04/14 05:39:19;;;;;;;0.57;0.57;;;7.00;99.90;;;;;;5035774;28;20521;-76
2021/04/14 05:41:45;;;;;;;0.93;0.93;;;7.20;99.90;;;;;;5018044;28;20176;-76
2021/04/14 05:44:11;;;;;;;0.68;0.68;;;7.30;99.90;;;;;;5035284;28;20156;-77
2021/04/14 05:46:36;;;;;;;4.95;1.50;;;7.40;99.90;;;;;;5034603;28;20184;-77
2021/04/14 05:49:02;;;;;;;8.85;1.75;;;7.50;99.90;;;;;;5034398;28;20568;-77
2021/04/14 05:51:30;;;;;;;2.15;0.95;;;7.40;99.90;;;;;;5034386;28;20287;-77
2021/04/14 05:53:58;;;;;;;4.32;2.05;;;7.30;99.90;;;;;;5034430;28;20639;-77
2021/04/14 05:56:24;;;;;;;1.83;1.15;;;7.20;99.90;;;;;;5034372;28;20228;-77
2021/04/14 05:58:49;;;;;;;23.27;1.48;;;7.20;99.90;;;;;;5034291;28;20152;-77
2021/04/14 06:01:20;;;;;;;0.52;0.52;;;7.50;99.90;;;;;;5033769;28;20229;-77
2021/04/14 06:03:49;;;;;;;1.00;0.95;;;7.50;99.90;;;;;;5034116;28;20203;-78
2021/04/14 06:06:15;;;;;;;0.85;0.85;;;7.60;99.90;;;;;;5034079;28;20226;-78
2021/04/14 06:08:41;;;;;;;0.88;0.88;;;7.80;99.90;;;;;;5016608;28;20697;-77
2021/04/14 06:11:07;;;;;;;1.27;1.25;;;7.90;99.90;;;;;;5034441;28;20152;-78
2021/04/14 06:13:34;;;;;;;0.73;0.73;;;7.90;99.90;;;;;;5034094;28;20514;-78
2021/04/14 06:16:00;;;;;;;2.25;2.05;;;8.10;99.90;;;;;;5033898;28;20207;-79
2021/04/14 06:18:26;;;;;;;0.95;0.95;;;8.30;99.90;;;;;;5016168;28;20170;-78
2021/04/14 06:20:51;;;;;;;15.95;2.53;;;8.40;99.90;;;;;;5034026;28;20521;-75
2021/04/14 06:23:19;;;;;;;2.70;1.38;;;8.50;99.90;;;;;;5033597;28;20258;-76
2021/04/14 06:28:25;;;;;;;0.80;0.80;;;9.00;99.90;;;;;;5033943;28;20175;-78
2021/04/14 06:30:50;;;;;;;0.70;0.70;;;8.80;99.90;;;;;;5033685;28;20167;-76
2021/04/14 06:33:19;;;;;;;0.80;0.80;;;9.10;99.90;;;;;;5033986;28;20191;-76
2021/04/14 06:35:46;;;;;;;0.63;0.63;;;9.30;99.90;;;;;;5033516;28;20253;-76
2021/04/14 06:38:13;;;;;;;0.98;0.70;;;9.50;99.90;;;;;;5033597;28;20159;-76
2021/04/14 06:43:14;;;;;;;1.33;1.25;;;9.30;99.90;;;;;;5033597;28;20163;-77
2021/04/14 06:45:52;;;;;;;0.65;0.65;;;9.40;99.90;;;;;;5033398;28;20197;-77
2021/04/14 06:48:41;;;;;;;3.78;1.13;;;9.40;99.90;;;;;;5033526;28;20218;-77
2021/04/14 06:51:25;;;;;;;5.03;1.90;;;9.30;99.90;;;;;;5033243;28;20156;-77
2021/04/14 06:54:10;;;;;;;34.22;2.58;;;9.30;99.90;;;;;;5033142;28;20246;-76
2021/04/14 06:56:39;;;;;;;1.33;1.25;;;9.20;99.90;;;;;;5032886;28;20207;-75
2021/04/14 06:59:08;;;;;;;1.35;1.25;;;9.40;99.90;;;;;;5015677;28;20586;-78
2021/04/14 07:01:40;;;;;;;3.08;2.13;;;9.70;99.90;;;;;;5033452;28;20206;-76
2021/04/14 07:04:14;;;;;;;1.67;1.30;;;9.70;99.90;;;;;;5033290;28;20627;-77
2021/04/14 07:06:43;;;;;;;0.93;0.93;;;9.80;99.90;;;;;;5033534;28;20187;-76
2021/04/14 07:09:12;;;;;;;0.65;0.65;;;10.00;99.90;;;;;;5033299;28;20179;-76
2021/04/14 07:11:41;;;;;;;0.50;0.50;;;10.10;99.90;;;;;;5033553;28;20163;-77
2021/04/14 07:14:07;;;;;;;0.47;0.47;;;9.90;99.90;;;;;;5032841;28;20246;-75
2021/04/14 07:16:55;;;;;;;0.75;0.75;;;9.70;99.90;;;;;;5032737;28;20261;-76
2021/04/14 07:19:52;;;;;;;4.03;1.80;;;9.90;99.90;;;;;;5033004;28;20246;-76
2021/04/14 07:22:34;;;;;;;6.50;0.70;;;10.20;99.90;;;;;;5032939;28;20175;-75
2021/04/14 07:25:04;;;;;;;0.52;0.52;;;10.40;99.90;;;;;;5015376;28;20573;-76
2021/04/14 07:28:00;;;;;;;1.33;0.77;;;10.50;99.90;;;;;;5035759;28;20199;-76
2021/04/14 07:30:34;;;;;;;4.53;2.20;;;10.30;99.90;;;;;;5033538;28;20184;-75
2021/04/14 07:33:09;;;;;;;1.45;1.35;;;10.00;99.90;;;;;;5032999;28;20682;-76
2021/04/14 07:35:48;;;;;;;0.70;0.70;;;10.20;99.90;;;;;;5032409;28;20630;-75
2021/04/14 07:38:35;;;;;;;0.77;0.77;;;10.20;99.90;;;;;;5032746;28;20685;-75
2021/04/14 07:41:21;;;;;;;1.00;0.80;;;10.30;99.90;;;;;;5049068;28;20175;-75
2021/04/14 07:44:20;;;;;;;0.57;0.57;;;10.40;99.90;;;;;;5052630;28;20159;-75
2021/04/14 07:46:48;;;;;;;2.58;1.30;;;10.60;99.90;;;;;;5034593;28;20714;-75
2021/04/14 07:49:16;;;;;;;0.40;0.40;;;10.70;99.90;;;;;;5052610;28;20171;-75
2021/04/14 07:51:43;;;;;;;0.70;0.70;;;9.90;99.90;;;;;;5052543;28;20160;-75
2021/04/14 07:54:16;;;;;;;0.57;0.57;;;10.10;99.90;;;;;;5052661;28;20174;-75
2021/04/14 07:56:43;;;;;;;0.40;0.40;;;10.20;99.90;;;;;;5052286;28;20211;-75
2021/04/14 07:59:14;;;;;;;0.47;0.47;;;10.40;99.90;;;;;;5052545;28;20635;-76
2021/04/14 08:01:51;;;;;;;0.70;0.70;;;10.60;99.90;;;;;;5035336;28;20631;-76
2021/04/14 08:04:25;;;;;;;0.55;0.52;;;10.80;99.90;;;;;;5054191;28;20627;-76
2021/04/14 08:06:51;;;;;;;1.15;1.15;;;10.90;99.90;;;;;;5070188;28;20183;-75
2021/04/14 08:09:20;;;;;;;0.52;0.52;;;10.70;99.90;;;;;;5070227;28;20175;-76
2021/04/14 08:11:47;;;;;;;1.30;1.27;;;10.70;99.90;;;;;;5064074;28;20144;-76
2021/04/14 08:14:28;;;;;;;0.60;0.60;;;10.90;99.90;;;;;;5052539;28;20175;-76
2021/04/14 08:16:55;;;;;;;1.55;0.88;;;10.70;99.90;;;;;;5052393;28;20238;-75
2021/04/14 08:19:29;;;;;;;0.57;0.57;;;10.80;99.90;;;;;;5034761;28;20160;-76
2021/04/14 08:22:19;;;;;;;0.50;0.50;;;10.70;99.90;;;;;;5052257;28;20163;-76
2021/04/14 08:24:49;;;;;;;1.10;1.10;;;10.50;99.90;;;;;;5053033;28;20194;-76
2021/04/14 08:27:19;;;;;;;0.57;0.57;;;10.70;99.90;;;;;;5037180;28;20186;-76
2021/04/14 08:30:09;;;;;;;6.32;0.93;;;10.80;99.90;;;;;;5055642;28;20198;-76
2021/04/14 08:32:44;;;;;;;15.70;1.30;;;10.90;99.90;;;;;;5054792;28;20720;-76
2021/04/14 08:35:29;;;;;;;0.40;0.40;;;11.10;99.90;;;;;;5055788;28;20203;-76
2021/04/14 08:38:27;;;;;;;0.85;0.85;;;10.90;99.90;;;;;;5054611;28;20701;-76
2021/04/14 08:41:02;;;;;;;0.43;0.43;;;10.90;99.90;;;;;;5055566;28;20174;-76
2021/04/14 08:43:32;;;;;;;0.57;0.57;;;11.00;99.90;;;;;;5055618;28;20166;-77
2021/04/14 08:46:14;;;;;;;0.57;0.57;;;11.10;99.90;;;;;;5055410;28;20218;-77
2021/04/14 08:48:43;;;;;;;0.77;0.77;;;11.00;99.90;;;;;;5055822;28;20167;-83
2021/04/14 08:51:10;;;;;;;0.80;0.80;;;11.30;99.90;;;;;;5037849;28;20155;-83
2021/04/14 08:53:42;;;;;;;0.55;0.55;;;11.20;99.90;;;;;;5037978;28;20205;-84
2021/04/14 08:56:09;;;;;;;1.08;1.08;;;11.20;99.70;;;;;;5055755;28;20211;-82
2021/04/14 08:58:35;;;;;;;0.77;0.77;;;11.30;99.90;;;;;;5055194;28;20171;-76
2021/04/14 09:01:01;;;;;;;0.68;0.68;;;11.50;98.60;;;;;;5055297;28;20182;-77
2021/04/14 09:03:32;;;;;;;1.70;1.27;;;11.60;98.90;;;;;;5055099;28;20250;-76
2021/04/14 09:05:58;;;;;;;0.80;0.65;;;11.90;97.70;;;;;;5055119;28;20265;-77
2021/04/14 09:08:31;;;;;;;1.15;0.90;;;11.90;96.80;;;;;;5055234;28;20309;-77
2021/04/14 09:11:00;;;;;;;1.85;0.70;;;11.80;97.80;;;;;;5053789;28;20220;-75
2021/04/14 09:13:44;;;;;;;0.68;0.68;;;11.90;97.40;;;;;;5055316;28;20246;-77
2021/04/14 09:16:10;;;;;;;0.82;0.82;;;11.70;98.00;;;;;;5036248;28;20299;-77
2021/04/14 09:18:43;;;;;;;0.85;0.85;;;11.80;98.40;;;;;;5042200;28;20635;-76
2021/04/14 09:21:16;;;;;;;0.75;0.75;;;11.80;97.50;;;;;;5053122;28;20187;-76
2021/04/14 09:24:07;;;;;;;0.95;0.95;;;11.90;96.30;;;;;;5054963;28;20171;-76
2021/04/14 09:26:35;;;;;;;0.40;0.40;;;11.60;97.90;;;;;;5052828;28;20294;-76
2021/04/14 09:29:06;;;;;;;0.50;0.50;;;11.70;98.60;;;;;;5053798;28;20175;-77
2021/04/14 09:31:43;;;;;;;1.48;1.38;;;11.50;97.70;;;;;;5052616;28;20215;-76
2021/04/14 09:34:30;;;;;;;0.80;0.77;;;11.60;97.40;;;;;;5066875;28;20228;-77
2021/04/14 09:37:11;;;;;;;0.77;0.77;;;11.90;97.90;;;;;;5035623;28;20209;-77
2021/04/14 09:39:45;;;;;;;0.70;0.70;;;12.00;97.00;;;;;;5053469;28;20175;-77
2021/04/14 09:42:25;;;;;;;1.25;1.17;;;12.30;95.60;;;;;;5054516;28;20158;-76
2021/04/14 09:44:55;;;;;;;1.10;1.05;;;12.10;94.80;;;;;;5052496;28;20207;-79
2021/04/14 09:47:30;;;;;;;2.47;1.98;;;12.20;94.30;;;;;;5054276;28;20187;-77
2021/04/14 09:50:14;;;;;;;0.43;0.43;;;12.20;94.30;;;;;;5037555;28;20202;-77
2021/04/14 09:52:43;;;;;;;0.30;0.30;;;12.20;93.40;;;;;;5034961;28;20174;-78
2021/04/14 09:55:15;;;;;;;1.38;1.15;;;12.10;93.80;;;;;;5038312;28;20210;-77
2021/04/14 09:57:44;;;;;;;1.42;1.33;;;12.00;93.50;;;;;;5054193;28;20546;-78
2021/04/14 10:00:32;;;;;;;0.98;0.98;;;12.10;94.30;;;;;;5036820;28;20256;-78
2021/04/14 10:03:17;;;;;;;0.90;0.90;;;12.30;94.80;;;;;;5053975;28;20689;-78
2021/04/14 10:05:49;;;;;;;0.73;0.73;;;12.60;93.90;;;;;;5055547;28;20183;-77
2021/04/14 10:08:16;;;;;;;1.00;0.90;;;12.50;92.90;;;;;;5052606;28;20163;-76
2021/04/14 10:10:45;;;;;;;4.82;1.45;;;12.90;92.60;;;;;;5036786;28;20178;-78
2021/04/14 10:13:16;;;;;;;0.70;0.70;;;12.90;93.30;;;;;;5053291;28;20167;-75
2021/04/14 10:15:49;;;;;;;0.73;0.73;;;12.90;92.50;;;;;;5037435;28;20210;-78
2021/04/14 10:18:27;;;;;;;1.17;0.70;;;13.10;91.80;;;;;;5035604;28;20168;-75
2021/04/14 10:21:09;;;;;;;4.10;0.75;;;13.20;91.20;;;;;;5054311;28;20166;-77
2021/04/14 10:23:36;;;;;;;0.30;0.30;;;13.40;90.50;;;;;;5031659;28;20647;-76
2021/04/14 10:26:07;;;;;;;1.25;1.15;;;13.50;90.50;;;;;;5014761;28;20313;-76
2021/04/14 10:28:34;;;;;;;0.93;0.93;;;12.90;90.30;;;;;;5051080;28;20179;-76
2021/04/14 10:31:08;;;;;;;2.40;1.20;;;12.40;91.00;;;;;;5052300;28;20619;-76
2021/04/14 10:33:35;;;;;;;1.00;0.90;;;12.70;91.50;;;;;;5052309;28;20274;-76
2021/04/14 10:36:11;;;;;;;2.85;1.25;;;12.90;90.60;;;;;;5052659;28;20203;-76
2021/04/14 10:38:38;;;;;;;0.95;0.93;;;13.10;90.20;;;;;;5053240;28;20187;-76
2021/04/14 10:41:13;;;;;;;0.68;0.68;;;12.70;89.10;;;;;;5054488;28;20254;-76
2021/04/14 10:43:39;;;;;;;2.00;1.77;;;12.70;90.00;;;;;;5056421;28;20167;-79
2021/04/14 10:46:16;;;;;;;0.77;0.73;;;12.60;90.30;;;;;;5071031;28;20209;-80
2021/04/14 10:48:47;;;;;;;2.28;1.75;;;12.90;90.10;;;;;;5070179;28;20159;-78
2021/04/14 10:51:26;;;;;;;1.02;0.90;;;12.90;88.30;;;;;;5065679;28;20174;-78
2021/04/14 10:53:56;;;;;;;1.73;0.95;;;12.70;90.00;;;;;;5052408;28;20501;-78
2021/04/14 10:56:30;;;;;;;0.77;0.77;;;12.90;90.50;;;;;;5053301;28;20211;-78
2021/04/14 10:59:03;;;;;;;0.50;0.50;;;13.20;88.90;;;;;;5053320;28;20168;-79
2021/04/14 11:01:44;;;;;;;1.23;1.10;;;13.40;87.50;;;;;;5051826;28;20182;-75
2021/04/14 11:04:16;;;;;;;0.90;0.90;;;13.40;85.70;;;;;;5053130;28;20175;-77
2021/04/14 11:06:49;;;;;;;0.40;0.40;;;13.30;87.00;;;;;;5053051;28;20583;-77
2021/04/14 11:09:16;;;;;;;0.68;0.60;;;13.20;85.80;;;;;;5044602;28;20191;-77
2021/04/14 11:11:44;;;;;;;1.05;0.98;;;13.50;85.20;;;;;;5050363;28;20559;-78
2021/04/14 11:14:13;;;;;;;0.60;0.60;;;13.70;85.30;;;;;;5052722;28;20163;-77
2021/04/14 11:16:45;;;;;;;0.90;0.63;;;13.50;85.90;;;;;;5035005;28;20749;-77
2021/04/14 11:19:18;;;;;;;0.63;0.63;;;13.60;85.90;;;;;;5052922;28;20159;-77
2021/04/14 11:21:44;;;;;;;1.17;1.17;;;13.40;85.80;;;;;;5053266;28;20159;-78
2021/04/14 11:24:15;;;;;;;0.50;0.50;;;13.60;86.50;;;;;;5055675;28;20163;-78
2021/04/14 11:27:13;;;;;;;2.55;1.60;;;13.80;85.50;;;;;;5053248;28;20187;-76
2021/04/14 11:29:38;;;;;;;0.80;0.80;;;13.70;84.20;;;;;;5051486;28;20190;-78
2021/04/14 11:32:25;;;;;;;3.95;1.13;;;13.80;84.60;;;;;;5052945;28;20227;-77
2021/04/14 11:34:55;;;;;;;1.08;0.95;;;13.20;84.90;;;;;;5052417;28;20244;-76
2021/04/14 11:37:35;;;;;;;0.70;0.70;;;13.40;86.80;;;;;;5052322;28;20219;-78
2021/04/14 11:40:18;;;;;;;1.25;1.17;;;13.90;84.30;;;;;;5052576;28;20242;-79
2021/04/14 11:42:54;;;;;;;1.05;0.60;;;14.00;84.80;;;;;;5052757;28;20638;-77
2021/04/14 11:45:36;;;;;;;1.25;1.13;;;13.80;83.30;;;;;;5052526;28;20155;-77
2021/04/14 11:48:13;;;;;;;9.55;1.00;;;13.90;83.70;;;;;;5052684;28;20228;-78
2021/04/14 11:50:45;;;;;;;1.00;0.88;;;13.90;84.50;;;;;;5052682;28;20170;-78
2021/04/14 11:53:23;;;;;;;1.35;1.25;;;14.00;82.80;;;;;;5052895;28;20175;-78
2021/04/14 11:55:50;;;;;;;2.05;0.95;;;13.90;82.60;;;;;;5052667;28;20712;-78
2021/04/14 11:58:31;;;;;;;1.40;1.30;;;13.70;83.10;;;;;;5034835;28;20305;-77
2021/04/14 12:00:56;;;;;;;1.23;1.15;;;13.90;82.90;;;;;;5055029;28;20178;-78
2021/04/14 12:03:34;;;;;;;1.20;0.88;;;13.30;81.70;;;;;;5056440;28;20171;-78
2021/04/14 12:06:00;;;;;;;1.38;1.27;;;12.90;85.70;;;;;;5056239;28;20198;-79
2021/04/14 12:08:29;;;;;;;0.90;0.90;;;12.90;85.10;;;;;;5038535;28;20551;-77
2021/04/14 12:10:54;;;;;;;0.80;0.80;;;13.20;85.50;;;;;;5056545;28;20170;-80
2021/04/14 12:13:21;;;;;;;0.63;0.63;;;13.40;85.90;;;;;;5056632;28;20170;-81
2021/04/14 12:15:50;;;;;;;4.40;2.70;;;13.30;84.60;;;;;;5038464;28;20681;-77
2021/04/14 12:18:17;;;;;;;0.75;0.65;;;13.70;83.60;;;;;;5056354;28;20202;-83
2021/04/14 12:20:43;;;;;;;1.38;1.17;;;13.80;84.00;;;;;;5038048;28;20643;-77
2021/04/14 12:23:08;;;;;;;1.52;1.45;;;13.10;85.30;;;;;;5056074;28;20209;-78
2021/04/14 12:25:34;;;;;;;4.38;2.65;;;13.40;82.60;;;;;;5055811;28;20213;-77
2021/04/14 12:28:00;;;;;;;0.40;0.40;;;13.50;83.00;;;;;;5055970;28;20165;-77
2021/04/14 12:30:27;;;;;;;1.05;1.05;;;13.20;83.90;;;;;;5055808;28;20202;-77
2021/04/14 12:32:54;;;;;;;1.67;1.10;;;13.10;84.40;;;;;;5055732;28;20212;-77
2021/04/14 12:35:22;;;;;;;0.60;0.60;;;13.40;82.00;;;;;;5055846;28;20190;-77
2021/04/14 12:37:48;;;;;;;2.55;2.35;;;13.30;82.20;;;;;;5052365;28;20669;-77
2021/04/14 12:40:14;;;;;;;1.58;1.05;;;13.50;82.30;;;;;;5053434;28;20190;-77
2021/04/14 12:42:40;;;;;;;1.33;1.25;;;13.40;82.70;;;;;;5054415;28;20529;-77
2021/04/14 12:45:20;;;;;;;5.18;2.95;;;13.20;84.60;;;;;;5054445;28;20152;-77
2021/04/14 12:47:45;;;;;;;1.20;0.93;;;13.30;83.30;;;;;;5054294;28;20674;-77
2021/04/14 12:50:11;;;;;;;5.40;1.92;;;13.60;83.70;;;;;;5054720;28;20678;-77
2021/04/14 12:52:44;;;;;;;1.40;1.30;;;13.80;83.30;;;;;;5054469;28;20178;-77
2021/04/14 12:55:18;;;;;;;1.20;1.10;;;13.30;84.40;;;;;;5054728;28;20187;-81
2021/04/14 12:57:44;;;;;;;0.55;0.55;;;13.00;84.60;;;;;;5054029;28;20214;-82
2021/04/14 13:00:18;;;;;;;1.75;1.30;;;12.90;85.10;;;;;;5036318;28;20163;-82
2021/04/14 13:02:48;;;;;;;1.25;1.15;;;12.80;84.50;;;;;;5036261;28;20186;-82
2021/04/14 13:05:33;;;;;;;0.95;0.90;;;13.20;85.00;;;;;;5036342;28;20171;-82
2021/04/14 13:08:19;;;;;;;0.63;0.63;;;12.90;85.50;;;;;;5053959;28;20202;-78
2021/04/14 13:10:50;;;;;;;1.85;0.93;;;12.50;86.60;;;;;;5053666;28;20233;-75
2021/04/14 13:13:16;;;;;;;0.73;0.73;;;12.50;86.90;;;;;;5052786;28;20947;-76